Change the Weather History Date:

Sunday, December 23, 2012

  Actual Average Record
Temperature  
Mean Temperature 14 °F -  
Max Temperature 19 °F 30 °F 54 °F (1964)
Min Temperature 9 °F 11 °F -25 °F (1989)
Degree Days  
Heating Degree Days 51    
Moisture  
Dew Point 11 °F    
Average Humidity 87    
Maximum Humidity 93    
Minimum Humidity 81    
Precipitation  
Precipitation 0.00 in - - ()
Sea Level Pressure  
Sea Level Pressure 30.00 in    
Wind  
Wind Speed 11 mph (NNE)    
Max Wind Speed 16 mph    
Max Gust Speed -    
Visibility 7 miles    
Events      
Averages and records for this station are not official NWS values.
T = Trace of Precipitation, MM = Missing Value Source: NWS Daily Summary

Daily Weather History Graph

Daily Weather History Graph

Search for Another Location

Airport or City:

Trip Planner

Search our weather history database for the weather conditions in past years. The results will help you decide how hot, cold, wet, or windy it might be!

Date:

Astronomy

Dec. 23, 2012 Rise Set
Actual Time 7:41 AM CST 4:48 PM CST
Civil Twilight 7:09 AM CST 5:20 PM CST
Nautical Twilight 6:34 AM CST 5:55 PM CST
Astronomical Twilight 6:00 AM CST 6:29 PM CST
Moon 1:41 PM CST (12/23) 3:22 AM CST (12/23)
Length of Visible Light 10h 10m
Length of Day
9h 06m
Waxing Gibbous, 82% of the Moon is Illuminated
Dec 23
Waxing Gibbous
Dec 28
Full
Jan 4
Last Quarter
Jan 11
New
Jan 18
First Quarter

Hourly Weather History & Observations

Time (CST) Temp. Windchill Dew Point Humidity Pressure Visibility Wind Dir Wind Speed Gust Speed Precip Events Conditions
12:15 AM 13.1 °F -1.4 °F 9.5 °F 86% 29.98 in 10.0 mi NNW 12.7 mph - N/A   Clear
12:35 AM 12.7 °F -1.8 °F 9.3 °F 86% 29.98 in 10.0 mi NNW 12.7 mph - N/A   Clear
12:55 AM 12.4 °F -2.9 °F 8.8 °F 85% 29.98 in 10.0 mi NNW 13.8 mph - N/A   Clear
1:15 AM 12.2 °F -3.7 °F 8.6 °F 85% 29.99 in 10.0 mi NNW 15.0 mph - N/A   Clear
1:35 AM 11.7 °F -2.5 °F 8.2 °F 86% 29.99 in 10.0 mi North 11.5 mph - N/A   Clear
1:55 AM 11.3 °F -2.9 °F 7.9 °F 86% 29.98 in 10.0 mi North 11.5 mph - N/A   Clear
2:15 AM 11.3 °F -2.9 °F 7.7 °F 85% 29.98 in 10.0 mi North 11.5 mph - N/A   Clear
2:35 AM 10.9 °F -4.1 °F 7.5 °F 86% 29.98 in 10.0 mi North 12.7 mph - N/A   Clear
2:55 AM 10.9 °F -2.6 °F 7.3 °F 85% 29.98 in 10.0 mi NNW 10.4 mph - N/A   Clear
3:15 AM 10.2 °F -4.3 °F 6.8 °F 86% 29.99 in 10.0 mi NNW 11.5 mph - N/A   Clear
3:35 AM 10.2 °F -3.5 °F 6.8 °F 86% 29.99 in 10.0 mi North 10.4 mph - N/A   Clear
3:55 AM 10.4 °F -4.8 °F 6.8 °F 85% 29.99 in 10.0 mi NNW 12.7 mph - N/A   Clear
4:15 AM 10.4 °F -4.1 °F 6.8 °F 85% 29.99 in 10.0 mi North 11.5 mph - N/A   Clear
4:35 AM 10.4 °F -5.4 °F 6.8 °F 85% 30.00 in 10.0 mi NNW 13.8 mph - N/A   Clear
4:55 AM 10.4 °F -6.6 °F 6.8 °F 85% 29.99 in 10.0 mi North 16.1 mph - N/A   Clear
5:15 AM 10.4 °F -6.0 °F 6.8 °F 85% 30.00 in 10.0 mi North 15.0 mph - N/A   Clear
5:35 AM 9.9 °F -4.7 °F 6.4 °F 86% 30.01 in 10.0 mi NNW 11.5 mph - N/A   Clear
6:15 AM 9.3 °F -3.8 °F 5.9 °F 86% 30.02 in 10.0 mi NNW 9.2 mph - N/A   Clear
6:35 AM 9.5 °F -3.5 °F 6.1 °F 86% 30.02 in 10.0 mi North 9.2 mph - N/A   Clear
6:55 AM 9.0 °F -5.9 °F 5.7 °F 87% 30.03 in 10.0 mi NNW 11.5 mph - N/A   Clear
7:15 AM 9.3 °F -6.1 °F 6.1 °F 87% 30.03 in 10.0 mi NNW 12.7 mph - N/A   Clear
7:35 AM 9.5 °F -4.4 °F 6.4 °F 87% 30.03 in 10.0 mi North 10.4 mph - N/A   Clear
7:55 AM 9.5 °F -4.4 °F 6.4 °F 87% 30.03 in 10.0 mi North 10.4 mph - N/A   Clear
8:15 AM 10.0 °F -3.7 °F 6.6 °F 86% 30.03 in 10.0 mi North 10.4 mph - N/A   Clear
8:35 AM 10.0 °F -3.7 °F 6.6 °F 86% 30.04 in 10.0 mi North 10.4 mph - N/A   Clear
8:55 AM 10.4 °F -3.3 °F 6.8 °F 85% 30.04 in 10.0 mi North 10.4 mph - N/A   Clear
9:15 AM 10.9 °F -1.8 °F 7.3 °F 85% 30.04 in 10.0 mi North 9.2 mph - N/A   Clear
9:35 AM 11.7 °F -3.8 °F 7.7 °F 84% 30.04 in 10.0 mi North 13.8 mph - N/A   Clear
9:55 AM 12.2 °F -2.5 °F 8.4 °F 85% 30.04 in 7.0 mi North 12.7 mph - N/A   Clear
10:15 AM 13.1 °F -1.4 °F 9.5 °F 86% 30.04 in 7.0 mi NNE 12.7 mph - N/A   Clear
10:35 AM 13.6 °F -0.7 °F 10.0 °F 86% 30.06 in 5.0 mi NNE 12.7 mph - N/A   Clear
10:55 AM 14.4 °F 0.9 °F 10.9 °F 86% 30.04 in 5.0 mi NNE 11.5 mph - N/A   Clear
11:15 AM 15.4 °F 3.8 °F 12.0 °F 86% 30.03 in 5.0 mi NE 9.2 mph - N/A   Clear
11:35 AM 16.5 °F 3.6 °F 13.1 °F 86% 30.03 in 5.0 mi NE 11.5 mph - N/A   Clear
11:55 AM 17.2 °F 6.0 °F 13.8 °F 86% 30.02 in 5.0 mi NE 9.2 mph - N/A   Clear
12:15 PM 18.1 °F 8.9 °F 14.5 °F 86% 30.02 in 5.0 mi NE 6.9 mph - N/A   Clear
12:35 PM 18.9 °F 8.0 °F 14.5 °F 83% 30.01 in 7.0 mi NE 9.2 mph - N/A   Clear
12:55 PM 19.0 °F 7.5 °F 14.4 °F 82% 30.00 in 7.0 mi NNE 10.4 mph - N/A   Clear
1:15 PM 19.4 °F 8.6 °F 14.5 °F 81% 30.00 in 10.0 mi NE 9.2 mph - N/A   Clear
1:35 PM 19.4 °F 8.6 °F 14.7 °F 82% 29.99 in 10.0 mi NE 9.2 mph - N/A   Clear
1:55 PM 19.2 °F 8.4 °F 14.9 °F 83% 29.99 in 7.0 mi NNE 9.2 mph - N/A   Clear
2:15 PM 19.4 °F 9.5 °F 15.1 °F 83% 30.00 in 7.0 mi NNE 8.1 mph - N/A   Clear
2:35 PM 18.5 °F 8.4 °F 14.9 °F 86% 30.01 in 7.0 mi NNE 8.1 mph - N/A   Clear
2:55 PM 18.9 °F 8.0 °F 14.9 °F 85% 29.99 in 7.0 mi NNE 9.2 mph - N/A   Clear
3:15 PM 18.9 °F 8.0 °F 15.1 °F 85% 30.01 in 7.0 mi NE 9.2 mph - N/A   Scattered Clouds
3:35 PM 18.7 °F 7.0 °F 15.3 °F 87% 30.01 in 7.0 mi NNE 10.4 mph - N/A   Scattered Clouds
3:55 PM 18.1 °F 8.9 °F 14.9 °F 87% 30.01 in 7.0 mi NE 6.9 mph - N/A   Mostly Cloudy
4:15 PM 18.0 °F 8.7 °F 15.1 °F 88% 30.01 in 7.0 mi NE 6.9 mph - N/A   Mostly Cloudy
4:35 PM 17.8 °F 7.5 °F 15.3 °F 90% 30.00 in 5.0 mi NE 8.1 mph - N/A   Overcast
4:55 PM 18.0 °F 6.9 °F 15.6 °F 91% 30.01 in 5.0 mi NE 9.2 mph - N/A   Overcast
5:15 PM 18.1 °F 7.9 °F 15.8 °F 91% 30.01 in 7.0 mi NNE 8.1 mph - N/A   Overcast
5:35 PM 18.1 °F 6.3 °F 15.8 °F 91% 29.99 in 7.0 mi ENE 10.4 mph - N/A   Overcast
5:55 PM 17.8 °F 5.2 °F 15.6 °F 91% 29.98 in 7.0 mi ENE 11.5 mph - N/A   Overcast
6:15 PM 17.4 °F 6.2 °F 15.4 °F 92% 29.99 in 5.0 mi NE 9.2 mph - N/A   Overcast
6:35 PM 17.1 °F 5.0 °F 15.3 °F 93% 29.98 in 5.0 mi NE 10.4 mph - N/A   Overcast
6:55 PM 17.4 °F 7.1 °F 15.6 °F 93% 29.98 in 5.0 mi NE 8.1 mph - N/A   Overcast
7:15 PM 17.1 °F 4.3 °F 14.9 °F 91% 29.98 in 5.0 mi NE 11.5 mph - N/A   Overcast
7:35 PM 16.7 °F 6.2 °F 14.9 °F 93% 29.98 in 5.0 mi NE 8.1 mph - N/A   Overcast
7:55 PM 16.7 °F 6.2 °F 14.9 °F 93% 29.99 in 5.0 mi NE 8.1 mph - N/A   Overcast
8:15 PM 16.7 °F 6.2 °F 14.9 °F 93% 29.98 in 4.0 mi ENE 8.1 mph - N/A   Overcast
8:55 PM 16.7 °F - 14.9 °F 93% 30.01 in 4.0 mi Calm Calm - N/A   Overcast
9:15 PM 16.7 °F 8.3 °F 14.9 °F 93% 29.99 in 4.0 mi ENE 5.8 mph - N/A   Overcast
9:35 PM 16.7 °F 9.6 °F 14.9 °F 93% 29.99 in 4.0 mi NE 4.6 mph - N/A   Overcast
9:55 PM 16.7 °F 11.2 °F 14.9 °F 93% 29.99 in 4.0 mi NE 3.5 mph - N/A   Overcast
10:15 PM 17.1 °F 8.7 °F 14.9 °F 91% 29.98 in 4.0 mi East 5.8 mph - N/A   Overcast
10:35 PM 17.1 °F 10.0 °F 14.9 °F 91% 29.98 in 4.0 mi East 4.6 mph - N/A   Overcast
10:55 PM 16.7 °F 11.2 °F 14.9 °F 93% 29.98 in 4.0 mi East 3.5 mph - N/A   Overcast
11:15 PM 16.7 °F 11.2 °F 14.7 °F 92% 29.97 in 3.0 mi ESE 3.5 mph - N/A   Overcast
11:35 PM 16.7 °F - 14.9 °F 93% 30.00 in 3.0 mi Calm Calm - N/A   Overcast
11:55 PM 16.7 °F - 14.7 °F 92% 29.97 in 3.0 mi Calm Calm - N/A   Overcast